createdAt,value
2023-03-20T00:01:56.684Z,2.45
2023-03-20T00:04:23.432Z,3.50
2023-03-20T00:06:51.288Z,2.63
2023-03-20T00:09:18.161Z,2.25
2023-03-20T00:11:49.606Z,2.80
2023-03-20T00:14:19.368Z,3.63
2023-03-20T00:16:48.180Z,1.83
2023-03-20T00:19:20.815Z,1.90
2023-03-20T00:21:48.058Z,2.28
2023-03-20T00:24:16.589Z,2.60
2023-03-20T00:26:45.003Z,2.30
2023-03-20T00:29:27.731Z,2.88
2023-03-20T00:31:55.446Z,1.88
2023-03-20T00:34:25.844Z,4.15
2023-03-20T00:36:53.440Z,2.08
2023-03-20T00:39:20.382Z,1.70
2023-03-20T00:42:00.329Z,1.95
2023-03-20T00:44:33.161Z,2.45
2023-03-20T00:47:03.282Z,1.67
2023-03-20T00:49:35.410Z,2.20
2023-03-20T00:52:03.695Z,3.58
2023-03-20T00:54:31.302Z,2.20
2023-03-20T00:57:04.173Z,1.98
2023-03-20T00:59:38.810Z,1.73
2023-03-20T01:02:06.364Z,2.95
2023-03-20T01:04:39.461Z,1.80
2023-03-20T01:07:08.102Z,1.80
2023-03-20T01:09:34.771Z,1.92
2023-03-20T01:12:02.471Z,3.88
2023-03-20T01:14:29.211Z,3.30
2023-03-20T01:16:56.165Z,4.10
2023-03-20T01:19:22.956Z,2.08
2023-03-20T01:21:49.731Z,4.00
2023-03-20T01:24:16.676Z,2.50
2023-03-20T01:26:45.874Z,5.13
2023-03-20T01:29:20.133Z,2.97
2023-03-20T01:31:47.199Z,3.13
2023-03-20T01:34:16.340Z,4.07
2023-03-20T01:36:50.988Z,3.72
2023-03-20T01:39:19.294Z,1.85
2023-03-20T01:41:47.256Z,2.35
2023-03-20T01:44:22.375Z,2.17
2023-03-20T01:46:52.059Z,2.75
2023-03-20T01:49:21.727Z,1.70
2023-03-20T01:51:49.719Z,5.85
2023-03-20T01:54:38.493Z,1.52
2023-03-20T01:57:17.350Z,2.00
2023-03-20T02:00:16.961Z,1.65
2023-03-20T02:02:47.181Z,2.72
2023-03-20T02:05:17.857Z,2.90
2023-03-20T02:07:51.149Z,3.33
2023-03-20T02:10:19.084Z,1.50
2023-03-20T02:12:47.514Z,3.25
2023-03-20T02:15:16.913Z,2.13
2023-03-20T02:17:43.767Z,3.72
2023-03-20T02:20:38.067Z,4.68
2023-03-20T02:23:34.724Z,5.60
2023-03-20T02:26:14.789Z,6.57
2023-03-20T02:28:53.906Z,4.05
2023-03-20T02:31:58.047Z,4.25
2023-03-20T02:34:40.701Z,3.00
2023-03-20T02:37:45.019Z,3.58
2023-03-20T02:40:22.993Z,4.20
2023-03-20T02:42:52.510Z,8.00
2023-03-20T02:45:27.899Z,3.15
2023-03-20T02:48:06.618Z,4.25
2023-03-20T02:50:56.434Z,3.35
2023-03-20T02:53:36.326Z,3.05
2023-03-20T02:56:08.664Z,7.72
2023-03-20T02:58:51.265Z,6.22
2023-03-20T03:01:24.811Z,3.72
2023-03-20T03:03:57.404Z,3.95
2023-03-20T03:06:29.742Z,3.45
2023-03-20T03:09:03.202Z,5.00
2023-03-20T03:11:34.204Z,7.57
2023-03-20T03:14:02.020Z,4.10
2023-03-20T03:16:33.035Z,9.43
2023-03-20T03:19:05.451Z,3.67
2023-03-20T03:21:34.913Z,2.67
2023-03-20T03:24:02.740Z,3.83
2023-03-20T03:26:34.718Z,6.32
2023-03-20T03:29:06.899Z,4.30
2023-03-20T03:34:01.623Z,4.00
2023-03-20T03:36:49.609Z,2.45
2023-03-20T03:39:46.547Z,3.58
2023-03-20T03:42:34.046Z,3.67
2023-03-20T03:45:08.867Z,4.90
2023-03-20T03:47:40.254Z,3.38
2023-03-20T03:50:30.066Z,2.67
2023-03-20T03:53:01.538Z,3.42
2023-03-20T03:55:35.041Z,4.72
2023-03-20T03:58:08.410Z,2.20
2023-03-20T04:00:36.080Z,4.45
2023-03-20T04:03:06.221Z,1.45
2023-03-20T04:05:37.692Z,3.47
2023-03-20T04:08:06.415Z,6.22
2023-03-20T04:10:33.648Z,3.35
2023-03-20T04:13:02.608Z,2.95
2023-03-20T04:15:29.352Z,3.53
2023-03-20T04:17:56.048Z,3.05
2023-03-20T04:20:23.103Z,3.05
2023-03-20T04:22:49.832Z,3.03
2023-03-20T04:25:23.402Z,4.60
2023-03-20T04:27:50.484Z,3.63
2023-03-20T04:30:17.480Z,3.10
2023-03-20T04:32:44.133Z,3.05
2023-03-20T04:35:10.802Z,4.05
2023-03-20T04:37:37.623Z,4.25
2023-03-20T04:40:04.694Z,4.90
2023-03-20T04:42:31.371Z,3.20
2023-03-20T04:44:58.098Z,5.30
2023-03-20T04:47:24.874Z,5.28
2023-03-20T04:49:51.619Z,4.47
2023-03-20T04:52:18.380Z,3.33
2023-03-20T04:54:45.012Z,4.97
2023-03-20T04:57:12.793Z,4.72
2023-03-20T04:59:39.532Z,5.22
2023-03-20T05:02:06.279Z,6.70
2023-03-20T05:04:32.960Z,3.60
2023-03-20T05:06:59.688Z,3.70
2023-03-20T05:09:26.531Z,3.22
2023-03-20T05:11:53.170Z,6.88
2023-03-20T05:14:19.919Z,6.13
2023-03-20T05:16:46.705Z,4.47
2023-03-20T05:19:13.356Z,3.53
2023-03-20T05:21:39.992Z,5.60
2023-03-20T05:24:06.997Z,4.75
2023-03-20T05:26:33.623Z,5.90
2023-03-20T05:29:00.558Z,6.22
2023-03-20T05:31:27.351Z,7.45
2023-03-20T05:33:54.144Z,4.88
2023-03-20T05:36:20.910Z,2.53
2023-03-20T05:38:47.571Z,3.22
2023-03-20T05:41:14.188Z,6.43
2023-03-20T05:43:40.823Z,3.53
2023-03-20T05:46:07.512Z,3.17
2023-03-20T05:48:35.447Z,4.18
2023-03-20T05:51:02.084Z,3.65
2023-03-20T05:53:28.743Z,2.72
2023-03-20T05:55:55.390Z,3.20
2023-03-20T05:58:22.220Z,2.60
2023-03-20T06:00:48.923Z,2.92
2023-03-20T06:03:15.629Z,3.35
2023-03-20T06:05:42.431Z,4.45
2023-03-20T06:08:09.073Z,3.30
2023-03-20T06:10:35.761Z,4.75
2023-03-20T06:13:02.812Z,6.70
2023-03-20T06:15:29.475Z,4.22
2023-03-20T06:17:56.890Z,4.10
2023-03-20T06:20:24.260Z,3.25
2023-03-20T06:22:51.243Z,2.22
2023-03-20T06:25:18.743Z,3.58
2023-03-20T06:27:49.202Z,5.50
2023-03-20T06:30:16.625Z,5.70
2023-03-20T06:32:43.697Z,3.40
2023-03-20T06:35:11.818Z,3.38
2023-03-20T06:37:38.464Z,3.85
2023-03-20T06:40:05.771Z,5.60
2023-03-20T06:42:32.428Z,6.68
2023-03-20T06:44:59.130Z,6.38
2023-03-20T06:47:25.897Z,3.78
2023-03-20T06:49:52.564Z,5.63
2023-03-20T06:52:21.681Z,3.88
2023-03-20T06:54:51.277Z,7.60
2023-03-20T06:57:19.434Z,4.43
2023-03-20T06:59:46.141Z,4.90
2023-03-20T07:02:12.843Z,5.60
2023-03-20T07:04:39.926Z,8.55
2023-03-20T07:07:06.837Z,5.97
2023-03-20T07:09:33.742Z,3.42
2023-03-20T07:12:00.641Z,3.53
2023-03-20T07:14:27.312Z,3.85
2023-03-20T07:16:54.989Z,3.70
2023-03-20T07:19:22.066Z,4.10
2023-03-20T07:21:48.981Z,6.43
2023-03-20T07:24:15.684Z,4.13
2023-03-20T07:26:42.403Z,3.15
2023-03-20T07:29:09.075Z,2.92
2023-03-20T07:31:35.871Z,3.85
2023-03-20T07:34:02.655Z,2.67
2023-03-20T07:36:29.332Z,4.05
2023-03-20T07:38:56.005Z,3.53
2023-03-20T07:41:22.690Z,3.90
2023-03-20T07:43:49.444Z,4.70
2023-03-20T07:46:16.235Z,2.78
2023-03-20T07:48:42.906Z,2.13
2023-03-20T07:51:09.791Z,1.45
2023-03-20T07:53:37.113Z,2.05
2023-03-20T07:56:04.702Z,1.17
2023-03-20T07:58:31.369Z,1.85
2023-03-20T08:00:58.846Z,1.23
2023-03-20T08:03:25.612Z,1.25
2023-03-20T08:05:52.380Z,2.30
2023-03-20T08:08:19.151Z,1.85
2023-03-20T08:10:46.018Z,1.05
2023-03-20T08:13:12.684Z,2.03
2023-03-20T08:15:39.819Z,1.48
2023-03-20T08:18:06.606Z,2.35
2023-03-20T08:20:33.358Z,2.05
2023-03-20T08:23:00.113Z,1.15
2023-03-20T08:25:26.853Z,1.30
2023-03-20T08:27:53.436Z,2.03
2023-03-20T08:30:20.247Z,3.40
2023-03-20T08:32:46.971Z,1.35
2023-03-20T08:35:29.650Z,0.93
2023-03-20T08:37:56.670Z,1.20
2023-03-20T08:40:23.421Z,1.13
2023-03-20T08:42:50.374Z,2.10
2023-03-20T08:45:17.164Z,2.95
2023-03-20T08:47:43.772Z,2.28
2023-03-20T08:50:11.373Z,2.42
2023-03-20T08:52:37.996Z,2.78
2023-03-20T08:55:05.007Z,5.28
2023-03-20T08:57:31.761Z,4.00
2023-03-20T08:59:58.365Z,2.17
2023-03-20T09:02:25.060Z,2.88
2023-03-20T09:04:51.765Z,0.93
2023-03-20T09:07:18.449Z,2.63
2023-03-20T09:09:45.356Z,0.40
2023-03-20T09:12:11.970Z,1.33
2023-03-20T09:14:38.818Z,0.43
2023-03-20T09:17:06.571Z,0.47
2023-03-20T09:19:34.266Z,0.90
2023-03-20T09:22:01.140Z,1.77
2023-03-20T09:24:29.303Z,4.28
2023-03-20T09:26:55.943Z,3.67
2023-03-20T09:29:22.651Z,2.67
2023-03-20T09:31:49.283Z,1.65
2023-03-20T09:34:16.334Z,1.02
2023-03-20T09:36:43.021Z,1.65
2023-03-20T09:39:09.740Z,0.75
2023-03-20T09:41:49.199Z,2.30
2023-03-20T09:44:41.190Z,3.80
2023-03-20T09:47:26.541Z,2.03
2023-03-20T09:49:53.139Z,1.65
2023-03-20T09:52:30.351Z,1.35
2023-03-20T09:55:02.975Z,2.53
2023-03-20T09:57:39.185Z,4.38
2023-03-20T10:00:16.748Z,1.67
2023-03-20T10:02:52.435Z,0.88
2023-03-20T10:05:24.751Z,2.30
2023-03-20T10:07:54.409Z,2.67
2023-03-20T10:10:31.920Z,1.58
2023-03-20T10:13:18.807Z,0.40
2023-03-20T10:15:55.735Z,1.02
2023-03-20T10:18:28.145Z,3.38
2023-03-20T10:21:18.694Z,2.55
2023-03-20T10:24:01.020Z,1.73
2023-03-20T10:26:30.029Z,6.13
2023-03-20T10:28:57.551Z,2.83
2023-03-20T10:31:38.809Z,0.90
2023-03-20T10:34:08.211Z,4.78
2023-03-20T10:36:39.230Z,2.15
2023-03-20T10:39:17.885Z,2.90
2023-03-20T10:41:56.500Z,0.90
2023-03-20T10:44:40.707Z,1.65
2023-03-20T10:47:11.470Z,6.47
2023-03-20T10:49:46.158Z,1.83
2023-03-20T10:52:28.319Z,1.27
2023-03-20T10:57:32.115Z,1.42
2023-03-20T10:59:59.517Z,0.90
2023-03-20T11:02:30.379Z,2.45
2023-03-20T11:05:00.599Z,2.40
2023-03-20T11:07:28.279Z,2.07
2023-03-20T11:10:07.472Z,5.00
2023-03-20T11:12:45.799Z,3.78
2023-03-20T11:15:15.377Z,4.80
2023-03-20T11:17:42.044Z,3.13
2023-03-20T11:20:14.025Z,4.07
2023-03-20T11:22:41.748Z,0.80
2023-03-20T11:25:24.205Z,1.88
2023-03-20T11:27:51.100Z,4.13
2023-03-20T11:30:18.510Z,1.15
2023-03-20T11:32:51.257Z,4.63
2023-03-20T11:35:20.907Z,1.40
2023-03-20T11:37:52.140Z,5.40
2023-03-20T11:40:22.542Z,2.83
2023-03-20T11:42:55.497Z,0.82
2023-03-20T11:45:22.736Z,3.42
2023-03-20T11:47:55.930Z,3.58
2023-03-20T11:50:34.288Z,4.35
2023-03-20T11:53:03.815Z,2.60
2023-03-20T11:55:35.550Z,1.95
2023-03-20T11:58:06.496Z,4.72
2023-03-20T12:00:42.376Z,1.95
2023-03-20T12:03:42.072Z,2.80
2023-03-20T12:06:16.265Z,2.47
2023-03-20T12:08:48.140Z,3.55
2023-03-20T12:11:36.623Z,1.58
2023-03-20T12:14:08.207Z,3.13
2023-03-20T12:16:37.120Z,1.17
2023-03-20T12:19:18.168Z,2.80
2023-03-20T12:22:04.533Z,3.58
2023-03-20T12:24:49.660Z,3.83
2023-03-20T12:27:34.706Z,2.75
2023-03-20T12:30:11.889Z,7.15
2023-03-20T12:32:54.756Z,1.85
2023-03-20T12:35:29.322Z,2.10
2023-03-20T12:37:56.244Z,1.33
2023-03-20T12:40:33.572Z,2.00
2023-03-20T12:43:18.974Z,1.10
2023-03-20T12:46:26.320Z,1.75
2023-03-20T12:49:00.388Z,2.03
2023-03-20T12:51:59.356Z,3.53
2023-03-20T12:55:03.003Z,5.55
2023-03-20T12:57:54.729Z,1.33
2023-03-20T13:01:30.553Z,3.60
2023-03-20T13:04:20.707Z,3.95
2023-03-20T13:07:07.675Z,3.40
2023-03-20T13:09:40.497Z,2.55
2023-03-20T13:12:21.286Z,1.60
2023-03-20T13:15:21.833Z,1.95
2023-03-20T13:18:11.601Z,1.58
2023-03-20T13:20:54.321Z,2.22
2023-03-20T13:23:39.751Z,2.85
2023-03-20T13:26:17.271Z,3.40
2023-03-20T13:29:17.431Z,4.60
2023-03-20T13:31:59.224Z,4.20
2023-03-20T13:34:55.077Z,4.78
2023-03-20T13:37:38.299Z,1.98
2023-03-20T13:40:35.336Z,4.03
2023-03-20T13:43:20.705Z,1.25
2023-03-20T13:45:49.807Z,4.00
2023-03-20T13:48:36.000Z,4.97
2023-03-20T13:51:18.828Z,3.80
2023-03-20T13:53:56.140Z,1.05
2023-03-20T13:56:28.547Z,3.83
2023-03-20T13:59:01.195Z,3.30
2023-03-20T14:01:36.775Z,3.78
2023-03-20T14:04:04.924Z,5.28
2023-03-20T14:06:31.522Z,3.15
2023-03-20T14:08:59.659Z,3.25
2023-03-20T14:11:35.111Z,1.85
2023-03-20T14:14:27.302Z,2.45
2023-03-20T14:17:02.660Z,2.47
2023-03-20T14:19:29.839Z,4.88
2023-03-20T14:21:57.214Z,3.08
2023-03-20T14:24:26.703Z,3.33
2023-03-20T14:27:00.565Z,2.67
2023-03-20T14:29:29.969Z,1.77
2023-03-20T14:32:16.828Z,2.17
2023-03-20T14:34:45.730Z,2.42
2023-03-20T14:37:31.526Z,2.20
2023-03-20T14:40:04.215Z,3.55
2023-03-20T14:42:58.926Z,3.28
2023-03-20T14:45:47.563Z,1.70
2023-03-20T14:48:32.714Z,2.60
2023-03-20T14:51:24.667Z,2.08
2023-03-20T14:54:17.761Z,3.13
2023-03-20T14:56:44.445Z,3.03
2023-03-20T14:59:12.793Z,0.60
2023-03-20T15:01:39.520Z,2.10
2023-03-20T15:04:27.958Z,1.38
2023-03-20T15:06:59.541Z,2.75
2023-03-20T15:09:33.194Z,2.05
2023-03-20T15:12:04.459Z,5.38
2023-03-20T15:14:42.426Z,3.85
2023-03-20T15:17:28.015Z,1.92
2023-03-20T15:20:22.564Z,1.52
2023-03-20T15:22:58.252Z,2.13
2023-03-20T15:25:40.018Z,5.15
2023-03-20T15:28:08.626Z,6.63
2023-03-20T15:30:39.213Z,6.78
2023-03-20T15:33:07.283Z,6.43
2023-03-20T15:35:35.103Z,5.90
2023-03-20T15:38:07.548Z,7.03
2023-03-20T15:40:50.009Z,6.28
2023-03-20T15:43:25.933Z,5.82
2023-03-20T15:46:14.099Z,4.38
2023-03-20T15:48:41.847Z,4.35
2023-03-20T15:51:10.760Z,3.47
2023-03-20T15:53:39.977Z,5.95
2023-03-20T15:56:18.341Z,5.07
2023-03-20T15:58:48.577Z,6.22
2023-03-20T16:01:18.894Z,3.28
2023-03-20T16:03:46.062Z,7.38
2023-03-20T16:06:16.640Z,5.72
2023-03-20T16:08:45.663Z,6.47
2023-03-20T16:11:16.924Z,5.65
2023-03-20T16:13:48.176Z,8.13
2023-03-20T16:16:18.964Z,3.23
2023-03-20T16:18:48.116Z,4.45
2023-03-20T16:21:27.560Z,5.82
2023-03-20T16:23:57.885Z,3.38
2023-03-20T16:26:27.156Z,6.28
2023-03-20T16:29:00.138Z,7.00
2023-03-20T16:31:34.403Z,6.40
2023-03-20T16:34:05.971Z,9.35
2023-03-20T16:36:36.351Z,4.05
2023-03-20T16:39:05.704Z,1.67
2023-03-20T16:41:37.412Z,2.10
2023-03-20T16:44:19.068Z,1.38
2023-03-20T16:47:10.594Z,1.02
2023-03-20T16:49:49.818Z,1.17
2023-03-20T16:52:21.635Z,0.88
2023-03-20T16:54:48.901Z,2.78
2023-03-20T16:57:18.972Z,0.80
2023-03-20T16:59:46.264Z,1.48
2023-03-20T17:02:30.218Z,2.80
2023-03-20T17:05:01.774Z,5.70
2023-03-20T17:07:30.746Z,7.03
2023-03-20T17:10:00.368Z,4.00
2023-03-20T17:12:32.432Z,1.33
2023-03-20T17:17:26.633Z,2.40
2023-03-20T17:19:53.378Z,1.85
2023-03-20T17:22:22.841Z,3.20
2023-03-20T17:24:50.237Z,2.53
2023-03-20T17:27:18.208Z,2.83
2023-03-20T17:29:46.180Z,0.60
2023-03-20T17:32:15.396Z,9.02
2023-03-20T17:34:43.000Z,15.40
2023-03-20T17:37:14.564Z,9.07
2023-03-20T17:39:41.685Z,7.45
2023-03-20T17:42:22.331Z,4.65
2023-03-20T17:44:49.172Z,17.15
2023-03-20T17:47:18.626Z,18.10
2023-03-20T17:49:45.856Z,13.35
2023-03-20T17:52:16.290Z,20.35
2023-03-20T17:54:43.712Z,27.73
2023-03-20T17:57:37.119Z,25.65
2023-03-20T18:00:20.120Z,18.38
2023-03-20T18:02:47.405Z,17.27
2023-03-20T18:05:14.158Z,12.57
2023-03-20T18:07:40.940Z,13.68
2023-03-20T18:10:18.588Z,8.82
2023-03-20T18:12:45.226Z,10.75
2023-03-20T18:15:12.097Z,15.50
2023-03-20T18:17:38.835Z,7.22
2023-03-20T18:20:06.075Z,7.55
2023-03-20T18:22:33.597Z,8.55
2023-03-20T18:25:00.469Z,6.05
2023-03-20T18:27:27.182Z,9.35
2023-03-20T18:29:53.852Z,16.63
2023-03-20T18:32:22.984Z,7.07
2023-03-20T18:34:49.898Z,8.82
2023-03-20T18:37:16.626Z,11.52
2023-03-20T18:39:43.259Z,12.38
2023-03-20T18:42:10.057Z,11.57
2023-03-20T18:44:37.207Z,15.43
2023-03-20T18:47:04.545Z,10.35
2023-03-20T18:49:31.780Z,12.48
2023-03-20T18:51:58.428Z,8.45
2023-03-20T18:54:25.120Z,6.03
2023-03-20T18:56:52.074Z,14.85
2023-03-20T18:59:19.556Z,10.35
2023-03-20T19:01:46.440Z,15.48
2023-03-20T19:04:13.207Z,10.68
2023-03-20T19:06:40.082Z,8.18
2023-03-20T19:09:07.413Z,5.72
2023-03-20T19:11:34.074Z,5.95
2023-03-20T19:14:00.862Z,5.40
2023-03-20T19:16:31.724Z,6.53
2023-03-20T19:19:01.423Z,8.43
2023-03-20T19:21:33.559Z,7.47
2023-03-20T19:24:03.417Z,6.13
2023-03-20T19:26:32.234Z,6.82
2023-03-20T19:29:01.390Z,6.00
2023-03-20T19:31:29.469Z,6.50
2023-03-20T19:33:56.880Z,10.65
2023-03-20T19:36:31.591Z,5.07
2023-03-20T19:38:59.790Z,5.95
2023-03-20T19:41:28.692Z,5.97
2023-03-20T19:43:56.580Z,11.70
2023-03-20T19:46:39.100Z,14.65
2023-03-20T19:49:06.858Z,16.20
2023-03-20T19:51:33.827Z,6.32
2023-03-20T19:54:00.741Z,6.57
2023-03-20T19:56:27.413Z,6.63
2023-03-20T19:58:54.832Z,3.63
2023-03-20T20:01:24.974Z,5.07
2023-03-20T20:03:57.487Z,5.57
2023-03-20T20:08:59.013Z,6.43
2023-03-20T20:11:25.713Z,12.98
2023-03-20T20:14:09.808Z,5.88
2023-03-20T20:16:39.694Z,8.15
2023-03-20T20:19:06.793Z,5.45
2023-03-20T20:24:21.076Z,6.70
2023-03-20T20:26:54.864Z,5.25
2023-03-20T20:29:24.852Z,5.47
2023-03-20T20:31:51.665Z,4.22
2023-03-20T20:37:51.794Z,4.20
2023-03-20T20:39:53.508Z,5.85
2023-03-20T20:42:20.652Z,5.15
2023-03-20T20:44:47.802Z,3.53
2023-03-20T20:47:16.135Z,5.20
2023-03-20T20:49:46.051Z,2.97
2023-03-20T20:52:13.132Z,2.55
2023-03-20T20:54:42.120Z,4.20
2023-03-20T20:57:10.904Z,4.18
2023-03-20T20:59:41.215Z,3.85
2023-03-20T21:02:12.655Z,3.55
2023-03-20T21:04:41.260Z,5.07
2023-03-20T21:07:11.613Z,4.78
2023-03-20T21:09:39.477Z,3.20
2023-03-20T21:12:08.206Z,7.60
2023-03-20T21:14:35.530Z,5.10
2023-03-20T21:17:04.107Z,3.92
2023-03-20T21:19:34.448Z,4.78
2023-03-20T21:22:01.654Z,7.03
2023-03-20T21:24:33.915Z,3.20
2023-03-20T21:27:08.095Z,3.50
2023-03-20T21:29:35.897Z,3.92
2023-03-20T21:32:02.750Z,3.50
2023-03-20T21:34:29.491Z,10.65
2023-03-20T21:36:58.058Z,0.45
2023-03-20T21:39:28.546Z,0.68
2023-03-20T21:41:56.633Z,0.80
2023-03-20T21:45:01.139Z,0.40
2023-03-20T21:53:17.965Z,0.28
2023-03-20T22:01:53.957Z,1.13
2023-03-20T22:04:54.814Z,0.30
2023-03-20T22:07:28.812Z,0.52
2023-03-20T22:13:00.293Z,0.43
2023-03-20T22:18:31.014Z,0.25
2023-03-20T22:24:20.409Z,0.30
2023-03-20T22:35:23.024Z,1.10
2023-03-20T22:38:02.429Z,0.40
2023-03-20T22:40:57.437Z,0.95
2023-03-20T22:46:03.317Z,0.20
2023-03-20T22:48:32.492Z,1.80
2023-03-20T22:50:59.435Z,0.20
2023-03-20T22:53:26.229Z,1.20
2023-03-20T22:55:53.770Z,0.38
2023-03-20T22:58:20.555Z,1.38
2023-03-20T23:00:47.236Z,0.95
2023-03-20T23:03:25.745Z,0.90
2023-03-20T23:06:22.953Z,0.93
2023-03-20T23:08:55.545Z,0.50
2023-03-20T23:11:26.699Z,0.50
2023-03-20T23:13:53.530Z,0.73
2023-03-20T23:16:21.231Z,1.08
2023-03-20T23:18:47.952Z,1.85
2023-03-20T23:21:14.594Z,0.52
2023-03-20T23:23:41.300Z,0.45
2023-03-20T23:26:13.789Z,2.13
2023-03-20T23:28:42.443Z,3.55
2023-03-20T23:31:16.163Z,2.25
2023-03-20T23:33:43.604Z,2.55
2023-03-20T23:36:21.422Z,2.55
2023-03-20T23:38:55.550Z,0.57
2023-03-20T23:41:38.960Z,0.75
2023-03-20T23:44:09.148Z,2.63
2023-03-20T23:46:35.891Z,1.73
2023-03-20T23:49:03.282Z,1.80
2023-03-20T23:51:29.947Z,0.85
2023-03-20T23:53:56.576Z,0.88
2023-03-20T23:56:23.296Z,0.35
2023-03-20T23:58:59.454Z,0.50
